Time;durP1;ratioP1;P1;durP2;ratioP2;P2;SDS_P1;SDS_P2;PMS_P1;PMS_P2;Temp;Humidity;BMP_temperature;BMP_pressure;BME280_temperature;BME280_humidity;BME280_pressure;Samples;Min_cycle;Max_cycle;Signal;HPM_P1;HPM_P2
2023/06/27 00:00:34;;;;;;;10.13;7.18;;;;;;;19.30;67.69;94902.91;5066420;28;20039;-80
2023/06/27 00:03:00;;;;;;;10.73;7.15;;;;;;;19.25;67.71;94898.06;5065597;28;20530;-78
2023/06/27 00:05:25;;;;;;;10.98;6.95;;;;;;;19.22;67.62;94896.28;5065750;28;20024;-79
2023/06/27 00:07:50;;;;;;;9.07;7.60;;;;;;;19.16;67.92;94892.69;5066005;28;20021;-79
2023/06/27 00:10:16;;;;;;;8.75;6.78;;;;;;;19.21;68.15;94903.09;5065412;28;20082;-79
2023/06/27 00:12:44;;;;;;;8.48;7.60;;;;;;;19.12;68.29;94897.69;5065834;28;20088;-79
2023/06/27 00:15:09;;;;;;;10.70;6.88;;;;;;;19.11;68.35;94901.75;5063813;28;20059;-78
2023/06/27 00:17:36;;;;;;;8.35;7.13;;;;;;;19.09;68.13;94893.09;5064897;28;20032;-79
2023/06/27 00:20:02;;;;;;;7.60;6.50;;;;;;;19.07;67.51;94895.63;5063687;28;20115;-79
2023/06/27 00:22:28;;;;;;;8.95;6.10;;;;;;;19.02;66.53;94899.13;5064683;28;20024;-79
2023/06/27 00:24:54;;;;;;;9.23;6.30;;;;;;;18.92;66.55;94900.56;5065728;28;20082;-78
2023/06/27 00:27:20;;;;;;;8.02;5.90;;;;;;;18.83;65.41;94888.34;5064018;28;20029;-79
2023/06/27 00:29:46;;;;;;;8.13;5.80;;;;;;;18.86;65.09;94899.72;5064309;28;20020;-79
2023/06/27 00:32:11;;;;;;;7.93;6.38;;;;;;;18.86;65.34;94900.50;5063635;28;20078;-80
2023/06/27 00:34:36;;;;;;;8.63;6.28;;;;;;;18.85;65.74;94898.97;5065985;28;20060;-79
2023/06/27 00:37:02;;;;;;;8.60;5.97;;;;;;;18.87;65.77;94899.25;5064786;28;20020;-79
2023/06/27 00:39:27;;;;;;;8.32;6.20;;;;;;;18.86;65.46;94886.56;5066118;28;20078;-79
2023/06/27 00:41:53;;;;;;;9.75;6.70;;;;;;;18.83;65.15;94887.56;5065171;28;20024;-78
2023/06/27 00:44:19;;;;;;;8.80;5.90;;;;;;;18.78;64.82;94880.69;5065463;28;20024;-79
2023/06/27 00:46:47;;;;;;;10.43;5.80;;;;;;;18.74;64.93;94884.94;5063990;28;20042;-79
2023/06/27 00:49:12;;;;;;;7.43;6.10;;;;;;;18.68;64.87;94870.19;5064839;28;20036;-80
2023/06/27 00:51:40;;;;;;;8.00;5.88;;;;;;;18.77;65.02;94879.16;5065536;28;20028;-79
2023/06/27 00:54:06;;;;;;;7.05;5.20;;;;;;;18.75;64.63;94890.03;5063258;28;20052;-79
2023/06/27 00:56:31;;;;;;;8.77;5.63;;;;;;;18.75;64.83;94887.25;5066089;28;20076;-78
2023/06/27 00:58:59;;;;;;;6.75;5.28;;;;;;;18.74;64.63;94882.91;5068315;28;20024;-79
2023/06/27 01:01:25;;;;;;;8.55;6.00;;;;;;;18.74;65.33;94891.28;5067791;28;20459;-80
2023/06/27 01:03:51;;;;;;;9.73;6.18;;;;;;;18.71;65.61;94894.28;5067588;28;20116;-79
2023/06/27 01:06:52;;;;;;;6.63;5.80;;;;;;;18.71;65.84;94889.50;5067367;28;20479;-79
2023/06/27 01:09:38;;;;;;;7.38;6.35;;;;;;;18.68;66.18;94884.88;5069613;28;20148;-78
2023/06/27 01:12:09;;;;;;;7.25;6.55;;;;;;;18.65;66.14;94876.75;5066952;28;20078;-79
2023/06/27 01:14:35;;;;;;;10.73;6.18;;;;;;;18.58;66.73;94875.94;5067238;28;20036;-79
2023/06/27 01:17:02;;;;;;;13.38;6.20;;;;;;;18.58;66.77;94878.72;5067735;28;20021;-78
2023/06/27 01:19:29;;;;;;;8.82;5.85;;;;;;;18.58;67.00;94889.84;5067782;28;20058;-78
2023/06/27 01:22:02;;;;;;;9.50;6.35;;;;;;;18.56;67.05;94883.22;5069137;28;20069;-79
2023/06/27 01:24:28;;;;;;;7.20;5.40;;;;;;;18.52;66.72;94883.47;5066257;28;20020;-79
2023/06/27 01:26:53;;;;;;;7.68;5.38;;;;;;;18.51;66.83;94881.91;5069169;28;20462;-78
2023/06/27 01:29:18;;;;;;;7.15;5.47;;;;;;;18.47;67.03;94875.03;5068102;28;20028;-78
2023/06/27 01:31:54;;;;;;;7.70;5.93;;;;;;;18.47;66.55;94877.81;5068184;28;20429;-79
2023/06/27 01:34:20;;;;;;;7.57;6.15;;;;;;;18.45;66.63;94892.22;5067362;28;20459;-78
2023/06/27 01:36:59;;;;;;;7.70;5.68;;;;;;;18.46;66.52;94882.59;5067572;28;20532;-78
2023/06/27 01:39:57;;;;;;;7.78;5.32;;;;;;;18.43;66.72;94880.06;5067379;28;20529;-78
2023/06/27 01:42:30;;;;;;;9.85;5.75;;;;;;;18.38;66.52;94877.97;5062449;28;20048;-79
2023/06/27 01:44:56;;;;;;;7.70;5.65;;;;;;;18.33;66.08;94873.88;5066847;28;20107;-78
2023/06/27 01:47:22;;;;;;;6.82;5.55;;;;;;;18.28;66.14;94875.34;5066823;28;20495;-78
2023/06/27 01:49:48;;;;;;;10.13;5.93;;;;;;;18.28;66.62;94880.91;5065917;28;20082;-79
2023/06/27 01:52:13;;;;;;;10.32;5.18;;;;;;;18.25;66.16;94879.09;5050850;28;20028;-79
2023/06/27 01:54:43;;;;;;;8.45;5.35;;;;;;;18.22;65.59;94882.84;5066674;28;20116;-79
2023/06/27 01:57:09;;;;;;;6.10;5.05;;;;;;;18.20;65.70;94879.81;5067346;28;20101;-78
2023/06/27 01:59:34;;;;;;;7.45;5.35;;;;;;;18.20;66.33;94877.03;5067807;28;20021;-79
2023/06/27 02:02:00;;;;;;;6.68;5.53;;;;;;;18.21;66.45;94872.97;5068064;28;20017;-79
2023/06/27 02:04:25;;;;;;;7.93;5.63;;;;;;;18.11;67.13;94873.59;5067770;28;20410;-79
2023/06/27 02:06:51;;;;;;;9.63;5.65;;;;;;;18.11;67.12;94876.38;5067128;28;20108;-79
2023/06/27 02:09:16;;;;;;;8.90;5.43;;;;;;;18.09;67.66;94876.88;5068250;28;20024;-79
2023/06/27 02:11:42;;;;;;;9.40;5.70;;;;;;;18.05;67.38;94874.31;5066625;28;20469;-80
2023/06/27 02:14:07;;;;;;;7.32;5.65;;;;;;;18.03;67.77;94881.63;5068504;28;20082;-78
2023/06/27 02:16:32;;;;;;;13.32;6.28;;;;;;;18.01;67.74;94893.25;5066705;28;20024;-79
2023/06/27 02:18:58;;;;;;;7.10;5.80;;;;;;;18.02;67.98;94880.09;5067776;28;20524;-79
2023/06/27 02:21:23;;;;;;;7.25;5.88;;;;;;;18.00;68.08;94886.13;5066235;28;20023;-79
2023/06/27 02:23:49;;;;;;;9.77;6.43;;;;;;;17.98;67.87;94883.06;5067268;28;20108;-79
2023/06/27 02:26:14;;;;;;;10.45;5.97;;;;;;;17.97;67.95;94886.34;5067883;28;20025;-79
2023/06/27 02:28:39;;;;;;;10.60;6.35;;;;;;;17.97;68.05;94891.91;5066483;28;20394;-79
2023/06/27 02:31:05;;;;;;;7.28;5.57;;;;;;;17.93;68.06;94886.53;5067803;28;20032;-79
2023/06/27 02:33:30;;;;;;;10.23;5.75;;;;;;;17.95;67.55;94886.06;5066035;28;20111;-79
2023/06/27 02:35:55;;;;;;;9.75;5.93;;;;;;;17.93;67.41;94885.78;5049919;28;20036;-79
2023/06/27 02:38:21;;;;;;;12.00;6.72;;;;;;;17.85;67.32;94882.66;5066790;28;20044;-80
2023/06/27 02:40:47;;;;;;;11.18;6.57;;;;;;;17.83;67.41;94890.69;5067086;28;20552;-80
2023/06/27 02:43:12;;;;;;;15.55;6.65;;;;;;;17.86;68.26;94892.53;5067186;28;20056;-80
2023/06/27 02:45:38;;;;;;;16.83;6.50;;;;;;;17.83;68.00;94887.16;5064898;28;20025;-79
2023/06/27 02:48:04;;;;;;;10.00;6.38;;;;;;;17.84;68.20;94888.72;5067391;28;20032;-79
2023/06/27 02:50:29;;;;;;;7.68;5.60;;;;;;;17.82;67.96;94891.19;5064459;28;20020;-79
2023/06/27 02:52:55;;;;;;;11.73;5.85;;;;;;;17.77;67.67;94896.19;5067578;28;20499;-79
2023/06/27 02:55:20;;;;;;;8.70;5.95;;;;;;;17.78;67.77;94889.41;5065906;28;20045;-79
2023/06/27 02:57:46;;;;;;;8.55;5.55;;;;;;;17.77;67.69;94895.44;5067161;28;20124;-79
2023/06/27 03:00:12;;;;;;;10.45;5.85;;;;;;;17.77;67.96;94898.97;5066861;28;20028;-80
2023/06/27 03:02:37;;;;;;;8.23;6.30;;;;;;;17.77;67.86;94898.97;5066228;28;20080;-79
2023/06/27 03:05:03;;;;;;;9.48;6.20;;;;;;;17.76;67.54;94900.22;5066853;28;20106;-79
2023/06/27 03:07:28;;;;;;;9.88;5.43;;;;;;;17.74;67.68;94897.19;5065997;28;20013;-79
2023/06/27 03:09:53;;;;;;;12.50;5.93;;;;;;;17.72;67.72;94893.34;5066133;28;20066;-79
2023/06/27 03:12:19;;;;;;;14.10;6.22;;;;;;;17.69;67.46;94891.50;5065619;28;20032;-79
2023/06/27 03:14:44;;;;;;;11.73;6.40;;;;;;;17.65;67.73;94894.47;5066818;28;20119;-79
2023/06/27 03:17:10;;;;;;;11.50;6.03;;;;;;;17.69;67.90;94895.06;5066038;28;20032;-79
2023/06/27 03:19:35;;;;;;;13.23;6.13;;;;;;;17.62;67.96;94884.34;5065498;28;20108;-79
2023/06/27 03:22:01;;;;;;;11.43;6.72;;;;;;;17.68;68.14;94887.97;5066533;28;20021;-79
2023/06/27 03:24:26;;;;;;;11.15;6.28;;;;;;;17.72;68.28;94891.34;5065461;28;20028;-79
2023/06/27 03:26:51;;;;;;;13.73;7.68;;;;;;;17.76;68.24;94889.09;5065288;28;20120;-78
2023/06/27 03:29:17;;;;;;;17.80;7.28;;;;;;;17.76;67.93;94894.66;5065561;28;20074;-79
2023/06/27 03:31:42;;;;;;;12.95;6.53;;;;;;;17.78;68.13;94897.75;5066653;28;20056;-79
2023/06/27 03:34:07;;;;;;;16.58;6.97;;;;;;;17.74;68.11;94883.28;5065535;28;20025;-79
2023/06/27 03:36:33;;;;;;;11.63;6.55;;;;;;;17.78;68.04;94885.88;5064915;28;20107;-79
2023/06/27 03:38:59;;;;;;;15.93;9.25;;;;;;;17.77;68.07;94887.84;5066143;28;20016;-79
2023/06/27 03:41:24;;;;;;;15.95;8.95;;;;;;;17.76;67.62;94893.91;5066111;28;20554;-79
2023/06/27 03:43:50;;;;;;;12.63;7.32;;;;;;;17.75;67.89;94892.38;5066466;28;20067;-79
2023/06/27 03:46:15;;;;;;;11.60;7.47;;;;;;;17.77;67.97;94896.19;5065300;28;20044;-79
2023/06/27 03:48:41;;;;;;;12.65;7.40;;;;;;;17.78;68.11;94905.31;5066557;28;20093;-80
2023/06/27 03:51:06;;;;;;;10.35;7.22;;;;;;;17.81;67.98;94904.34;5063694;28;20498;-78
2023/06/27 03:53:32;;;;;;;11.50;7.47;;;;;;;17.81;68.01;94909.13;5066526;28;20017;-79
2023/06/27 03:55:57;;;;;;;12.82;8.23;;;;;;;17.83;67.39;94903.84;5065457;28;20060;-78
2023/06/27 03:58:22;;;;;;;15.23;8.52;;;;;;;17.83;66.87;94907.38;5064540;28;20040;-79
2023/06/27 04:00:52;;;;;;;10.48;7.75;;;;;;;17.85;66.08;94909.72;5065640;28;20028;-79
2023/06/27 04:03:17;;;;;;;12.50;7.88;;;;;;;17.89;65.75;94913.03;5064072;28;20056;-79
2023/06/27 04:05:43;;;;;;;10.63;8.27;;;;;;;17.89;65.44;94922.16;5066231;28;20020;-79
2023/06/27 04:08:08;;;;;;;9.80;7.28;;;;;;;17.95;65.55;94933.31;5065001;28;20032;-80
2023/06/27 04:10:34;;;;;;;11.82;7.32;;;;;;;17.96;65.86;94924.53;5066361;28;20107;-80
2023/06/27 04:12:59;;;;;;;10.18;6.47;;;;;;;17.99;65.82;94928.34;5065258;28;20029;-79
2023/06/27 04:15:24;;;;;;;7.32;5.75;;;;;;;17.97;66.16;94920.50;5066316;28;20024;-79
2023/06/27 04:17:50;;;;;;;8.55;5.80;;;;;;;17.98;66.49;94927.56;5064235;28;20123;-80
2023/06/27 04:20:15;;;;;;;6.63;5.00;;;;;;;18.00;66.18;94924.28;5064630;28;20029;-80
2023/06/27 04:22:41;;;;;;;11.82;5.43;;;;;;;18.03;66.48;94932.44;5066161;28;20470;-79
2023/06/27 04:25:10;;;;;;;6.07;5.07;;;;;;;18.04;66.64;94920.06;5065187;28;20103;-80
2023/06/27 04:27:36;;;;;;;6.78;4.78;;;;;;;18.10;66.87;94928.47;5066234;28;20039;-80
2023/06/27 04:30:03;;;;;;;9.27;4.80;;;;;;;18.12;66.60;94920.44;5064538;28;20024;-79
2023/06/27 04:32:28;;;;;;;7.43;4.90;;;;;;;18.13;66.75;94935.09;5068660;28;20051;-79
2023/06/27 04:34:57;;;;;;;7.05;4.85;;;;;;;18.15;66.53;94929.81;5069395;28;20055;-79
2023/06/27 04:37:23;;;;;;;7.45;4.95;;;;;;;18.13;66.75;94929.53;5069319;28;20028;-79
2023/06/27 04:39:49;;;;;;;9.57;5.07;;;;;;;18.13;66.44;94927.53;5068326;28;20492;-79
2023/06/27 04:42:15;;;;;;;10.05;5.63;;;;;;;18.19;66.73;94941.50;5069060;28;20020;-77
2023/06/27 04:44:40;;;;;;;9.00;5.07;;;;;;;18.12;66.70;94933.56;5068379;28;20463;-76
2023/06/27 04:47:05;;;;;;;8.32;5.38;;;;;;;18.16;66.48;94932.09;5068428;28;20021;-77
2023/06/27 04:49:31;;;;;;;6.65;5.30;;;;;;;18.22;66.83;94935.72;5069758;28;20032;-77
2023/06/27 04:51:57;;;;;;;7.00;5.53;;;;;;;18.24;66.90;94933.22;5068513;28;20108;-78
2023/06/27 04:54:22;;;;;;;8.70;5.13;;;;;;;18.29;66.30;94932.53;5069336;28;20028;-77
2023/06/27 04:56:48;;;;;;;9.63;5.50;;;;;;;18.39;66.01;94935.91;5069190;28;20552;-77
2023/06/27 04:59:13;;;;;;;8.30;5.80;;;;;;;18.38;65.58;94939.97;5068551;28;20025;-77
2023/06/27 05:01:38;;;;;;;8.38;5.72;;;;;;;18.40;65.76;94939.47;5069209;28;20027;-77
2023/06/27 05:04:04;;;;;;;8.52;6.22;;;;;;;18.43;65.53;94941.28;5067860;28;20137;-78
2023/06/27 05:06:31;;;;;;;10.82;6.05;;;;;;;18.45;65.39;94938.75;5066167;28;20017;-78
2023/06/27 05:08:56;;;;;;;8.57;6.47;;;;;;;18.45;65.42;94933.97;5068230;28;20035;-77
2023/06/27 05:11:22;;;;;;;7.20;5.35;;;;;;;18.49;65.18;94936.53;5068833;28;20028;-78
2023/06/27 05:13:47;;;;;;;7.68;6.13;;;;;;;18.51;64.59;94945.16;5066479;28;20036;-77
2023/06/27 05:16:12;;;;;;;7.80;6.20;;;;;;;18.53;64.50;94946.22;5069424;28;20031;-79
2023/06/27 05:18:38;;;;;;;7.22;5.70;;;;;;;18.54;65.28;94941.41;5068797;28;20100;-79
2023/06/27 05:21:03;;;;;;;11.18;6.78;;;;;;;18.51;65.12;94940.34;5068447;28;20494;-77
2023/06/27 05:23:29;;;;;;;10.95;6.13;;;;;;;18.63;65.05;94946.03;5069488;28;20056;-78
2023/06/27 05:25:54;;;;;;;9.45;6.68;;;;;;;18.66;64.71;94939.50;5068073;28;20020;-77
2023/06/27 05:28:20;;;;;;;10.43;7.25;;;;;;;18.70;65.27;94943.66;5069177;28;20415;-77
2023/06/27 05:30:45;;;;;;;8.20;6.60;;;;;;;18.72;65.21;94945.94;5067871;28;20032;-77
2023/06/27 05:33:11;;;;;;;9.27;6.47;;;;;;;18.76;64.96;94946.50;5068841;28;20327;-78
2023/06/27 05:35:36;;;;;;;11.10;6.97;;;;;;;18.83;64.36;94946.81;5068339;28;20022;-78
2023/06/27 05:38:02;;;;;;;10.50;6.13;;;;;;;18.86;63.74;94941.50;5068131;28;20450;-78
2023/06/27 05:40:28;;;;;;;8.02;6.07;;;;;;;18.90;63.96;94939.28;5068755;28;20032;-78
2023/06/27 05:42:53;;;;;;;6.72;5.70;;;;;;;18.93;64.35;94949.44;5067275;28;20028;-78
2023/06/27 05:45:19;;;;;;;10.23;7.03;;;;;;;18.99;64.42;94941.91;5069377;28;20125;-79
2023/06/27 05:47:44;;;;;;;9.02;6.35;;;;;;;19.13;64.49;94943.03;5065653;28;20506;-79
2023/06/27 05:50:09;;;;;;;10.52;6.22;;;;;;;19.20;64.22;94948.16;5050634;28;20111;-79
2023/06/27 05:52:35;;;;;;;9.38;6.28;;;;;;;19.21;64.18;94944.13;5066427;28;20495;-78
2023/06/27 05:55:00;;;;;;;9.30;6.75;;;;;;;19.28;64.04;94946.47;5067722;28;20542;-79
2023/06/27 05:57:26;;;;;;;12.93;7.60;;;;;;;19.31;63.90;94939.91;5050356;28;20490;-79
2023/06/27 05:59:52;;;;;;;11.02;6.80;;;;;;;19.41;64.37;94946.06;5065961;28;20115;-78
2023/06/27 06:02:18;;;;;;;9.10;6.60;;;;;;;19.43;64.32;94944.31;5066858;28;20104;-79
2023/06/27 06:04:43;;;;;;;8.90;6.82;;;;;;;19.47;63.72;94942.06;5065230;28;20111;-79
2023/06/27 06:07:08;;;;;;;10.93;6.80;;;;;;;19.56;63.29;94944.69;5068399;28;20410;-80
2023/06/27 06:09:34;;;;;;;11.80;6.47;;;;;;;19.62;63.18;94939.94;5066756;28;20025;-80
2023/06/27 06:11:59;;;;;;;10.55;6.50;;;;;;;19.74;61.87;94935.19;5067669;28;20032;-80
2023/06/27 06:14:25;;;;;;;10.00;6.45;;;;;;;19.82;61.92;94946.66;5067627;28;20052;-80
2023/06/27 06:16:50;;;;;;;9.50;6.20;;;;;;;19.86;61.64;94939.56;5067012;28;20039;-80
2023/06/27 06:19:16;;;;;;;8.60;6.47;;;;;;;19.93;61.17;94932.75;5066690;28;20031;-80
2023/06/27 06:21:41;;;;;;;8.98;6.35;;;;;;;20.08;60.66;94935.41;5066483;28;20039;-80
2023/06/27 06:24:10;;;;;;;7.55;6.20;;;;;;;20.16;59.67;94940.00;5068165;28;20020;-80
2023/06/27 06:26:36;;;;;;;8.25;6.45;;;;;;;20.28;59.80;94942.84;5065076;28;20406;-81
2023/06/27 06:29:02;;;;;;;8.52;5.93;;;;;;;20.33;58.78;94940.06;5066541;28;20021;-80
2023/06/27 06:31:28;;;;;;;8.75;6.22;;;;;;;20.39;58.75;94943.66;5065965;28;20032;-79
2023/06/27 06:33:53;;;;;;;9.85;6.53;;;;;;;20.41;58.82;94937.56;5066790;28;21022;-79
2023/06/27 06:36:19;;;;;;;9.90;8.02;;;;;;;20.47;58.76;94930.00;5066027;28;20046;-80
2023/06/27 06:38:44;;;;;;;9.25;6.53;;;;;;;20.55;58.97;94935.88;5066307;28;20028;-80
2023/06/27 06:41:10;;;;;;;10.98;6.95;;;;;;;20.63;58.81;94932.06;5066461;28;20031;-80
2023/06/27 06:43:35;;;;;;;9.60;6.30;;;;;;;20.70;58.86;94930.81;5064608;28;20024;-80
2023/06/27 06:46:00;;;;;;;9.20;6.30;;;;;;;20.65;59.09;94918.41;5067515;28;20530;-80
2023/06/27 06:48:26;;;;;;;9.52;6.70;;;;;;;20.78;58.94;94922.75;5066649;28;20021;-80
2023/06/27 06:50:52;;;;;;;9.40;6.63;;;;;;;20.80;58.18;94920.94;5067067;28;20432;-78
2023/06/27 06:53:18;;;;;;;11.40;8.65;;;;;;;20.93;58.91;94924.03;5065710;28;20024;-79
2023/06/27 06:55:43;;;;;;;9.15;6.95;;;;;;;20.97;58.85;94923.03;5064843;28;20265;-79
2023/06/27 06:58:09;;;;;;;13.95;9.75;;;;;;;21.03;58.60;94918.97;5067376;28;20028;-79
2023/06/27 07:00:34;;;;;;;10.50;7.38;;;;;;;21.11;58.47;94920.00;5065904;28;20032;-79
2023/06/27 07:03:00;;;;;;;11.52;7.65;;;;;;;21.19;58.68;94925.84;5066059;28;20021;-80
2023/06/27 07:05:25;;;;;;;8.27;6.75;;;;;;;21.35;58.00;94927.16;5065978;28;20067;-80
2023/06/27 07:07:50;;;;;;;11.25;6.93;;;;;;;21.37;58.20;94924.59;5067178;28;20047;-79
2023/06/27 07:10:16;;;;;;;9.07;6.43;;;;;;;21.46;58.33;94915.97;5066262;28;20094;-80
2023/06/27 07:12:41;;;;;;;8.05;5.95;;;;;;;21.58;57.61;94920.28;5064941;28;20025;-81
2023/06/27 07:15:08;;;;;;;8.73;6.82;;;;;;;21.70;56.72;94923.81;5065441;28;20056;-80
2023/06/27 07:17:33;;;;;;;9.93;6.50;;;;;;;21.73;56.90;94920.00;5064349;28;20541;-80
2023/06/27 07:19:59;;;;;;;8.60;6.70;;;;;;;21.87;56.69;94924.56;5067246;28;20021;-80
2023/06/27 07:22:24;;;;;;;11.32;7.57;;;;;;;21.96;55.76;94924.31;5064193;28;20032;-80
2023/06/27 07:24:50;;;;;;;9.23;6.60;;;;;;;22.01;55.18;94915.09;5065599;28;20358;-80
2023/06/27 07:27:15;;;;;;;9.35;6.95;;;;;;;22.06;54.40;94924.00;5065823;28;20434;-80
2023/06/27 07:29:40;;;;;;;8.40;6.15;;;;;;;22.12;54.17;94916.38;5066399;28;20020;-80
2023/06/27 07:32:07;;;;;;;7.38;5.88;;;;;;;22.19;53.94;94925.03;5066471;28;20469;-79
2023/06/27 07:34:33;;;;;;;9.10;5.82;;;;;;;22.26;53.38;94924.50;5065555;28;20413;-79
2023/06/27 07:36:59;;;;;;;8.45;5.68;;;;;;;22.38;53.79;94918.84;5066327;28;20524;-79
2023/06/27 07:39:24;;;;;;;7.50;5.70;;;;;;;22.49;53.64;94921.59;5065398;28;20107;-79
2023/06/27 07:41:50;;;;;;;8.82;6.10;;;;;;;22.57;53.27;94916.22;5065077;28;20464;-80
2023/06/27 07:44:15;;;;;;;9.60;6.57;;;;;;;22.65;53.57;94922.78;5065367;28;20028;-80
2023/06/27 07:46:41;;;;;;;9.82;6.90;;;;;;;22.73;53.37;94920.97;5064896;28;20051;-79
2023/06/27 07:49:07;;;;;;;11.52;6.82;;;;;;;22.84;53.17;94926.53;5064328;28;20024;-79
2023/06/27 07:51:32;;;;;;;9.20;5.63;;;;;;;22.95;52.05;94926.50;5065590;28;20021;-80
2023/06/27 07:54:00;;;;;;;12.27;7.22;;;;;;;23.03;51.27;94915.47;5066205;28;20021;-79
2023/06/27 07:56:25;;;;;;;11.40;6.40;;;;;;;23.11;51.66;94918.47;5063766;28;20419;-79
2023/06/27 07:58:51;;;;;;;7.70;6.13;;;;;;;23.23;51.78;94923.50;5065834;28;20016;-79
2023/06/27 08:01:16;;;;;;;8.00;5.90;;;;;;;23.32;51.07;94919.59;5064827;28;20282;-79
2023/06/27 08:03:41;;;;;;;9.57;5.57;;;;;;;23.35;51.23;94918.56;5066294;28;20025;-79
2023/06/27 08:06:07;;;;;;;8.43;6.13;;;;;;;23.42;50.59;94915.19;5064869;28;20017;-79
2023/06/27 08:08:32;;;;;;;8.20;6.32;;;;;;;23.49;49.25;94911.06;5064384;28;20036;-80
2023/06/27 08:10:58;;;;;;;7.05;5.53;;;;;;;23.62;48.46;94916.03;5065363;28;20050;-76
2023/06/27 08:13:23;;;;;;;8.95;5.35;;;;;;;23.67;48.67;94912.44;5063905;28;20021;-77
2023/06/27 08:15:49;;;;;;;10.63;5.75;;;;;;;23.76;48.10;94910.06;5064492;28;20032;-82
2023/06/27 08:18:14;;;;;;;6.90;6.00;;;;;;;23.79;47.72;94922.28;5063703;28;20020;-79
2023/06/27 08:20:40;;;;;;;9.25;6.43;;;;;;;23.89;47.68;94920.66;5064418;28;20029;-80
2023/06/27 08:23:06;;;;;;;7.55;5.55;;;;;;;23.92;48.35;94916.81;5063530;28;20028;-80
2023/06/27 08:25:31;;;;;;;10.32;5.68;;;;;;;24.08;47.85;94929.13;5064515;28;20032;-80
2023/06/27 08:27:57;;;;;;;6.20;4.72;;;;;;;24.14;46.62;94920.66;5063183;28;20166;-85
2023/06/27 08:30:22;;;;;;;6.07;4.68;;;;;;;24.15;46.78;94910.97;5063911;28;20043;-80
2023/06/27 08:32:48;;;;;;;6.85;4.93;;;;;;;24.28;46.53;94914.63;5065204;28;20028;-81
2023/06/27 08:35:13;;;;;;;7.32;4.78;;;;;;;24.32;45.54;94908.72;5063953;28;20025;-83
2023/06/27 08:37:39;;;;;;;5.20;4.55;;;;;;;24.39;44.54;94905.34;5064201;28;20027;-83
2023/06/27 08:40:05;;;;;;;7.28;4.60;;;;;;;24.54;43.24;94905.66;5063457;28;20045;-84
2023/06/27 08:42:32;;;;;;;9.13;5.85;;;;;;;24.63;43.11;94901.72;5065063;28;20820;-82
2023/06/27 08:44:58;;;;;;;6.72;4.43;;;;;;;24.68;42.04;94900.13;5063211;28;20052;-83
2023/06/27 08:47:26;;;;;;;4.75;3.83;;;;;;;24.74;41.99;94906.44;5065494;28;20498;-81
2023/06/27 08:50:01;;;;;;;7.43;4.35;;;;;;;24.77;43.01;94903.31;5065137;28;20024;-83
2023/06/27 08:52:27;;;;;;;7.85;4.55;;;;;;;24.89;43.60;94896.25;5063780;28;20087;-82
2023/06/27 08:54:54;;;;;;;8.57;5.82;;;;;;;24.98;44.45;94909.16;5065194;28;20049;-82
2023/06/27 08:57:24;;;;;;;7.68;5.75;;;;;;;25.12;43.68;94901.59;5063290;28;20086;-82
2023/06/27 08:59:50;;;;;;;8.57;5.68;;;;;;;25.26;43.62;94896.78;5064858;28;20025;-81
2023/06/27 09:02:16;;;;;;;6.72;4.80;;;;;;;25.37;43.08;94888.16;5063456;28;20025;-78
2023/06/27 09:04:42;;;;;;;9.82;5.25;;;;;;;25.61;41.15;94892.88;5063693;28;20035;-76
2023/06/27 09:07:07;;;;;;;5.95;4.75;;;;;;;25.73;40.48;94885.00;5063618;28;20024;-76
2023/06/27 09:09:34;;;;;;;4.90;4.40;;;;;;;25.84;39.77;94896.06;5064736;28;20418;-76
2023/06/27 09:12:00;;;;;;;7.55;4.25;;;;;;;25.93;39.57;94896.44;5064080;28;20431;-80
2023/06/27 09:14:26;;;;;;;5.28;4.18;;;;;;;26.03;39.47;94896.75;5063117;28;20032;-78
2023/06/27 09:16:52;;;;;;;7.57;5.32;;;;;;;26.13;39.42;94886.56;5064700;28;20047;-80
2023/06/27 09:19:18;;;;;;;7.75;5.60;;;;;;;26.24;39.23;94888.41;5066363;28;20406;-80
2023/06/27 09:21:47;;;;;;;7.75;4.15;;;;;;;26.33;39.01;94887.22;5050924;28;20082;-90
2023/06/27 09:24:14;;;;;;;4.85;3.70;;;;;;;26.43;38.91;94885.50;5050929;28;20024;-83
2023/06/27 09:26:39;;;;;;;8.13;4.68;;;;;;;26.55;38.77;94886.78;5066476;28;20131;-76
2023/06/27 09:29:05;;;;;;;8.00;5.32;;;;;;;26.78;37.74;94894.75;5084054;28;20024;-76
2023/06/27 09:31:30;;;;;;;7.03;4.72;;;;;;;26.93;37.98;94904.16;5073849;28;20029;-77
2023/06/27 09:34:11;;;;;;;6.65;4.28;;;;;;;26.99;37.64;94895.59;5067225;28;20495;-76
2023/06/27 09:36:40;;;;;;;6.30;4.20;;;;;;;27.13;37.61;94899.16;5067332;28;20531;-78
2023/06/27 09:39:10;;;;;;;4.40;3.60;;;;;;;27.23;37.17;94898.13;5067360;28;20029;-77
2023/06/27 09:41:47;;;;;;;6.22;3.95;;;;;;;27.38;36.13;94897.53;5067852;28;20027;-77
2023/06/27 09:44:17;;;;;;;5.10;3.60;;;;;;;27.49;36.67;94896.50;5066490;28;20029;-77
2023/06/27 09:46:44;;;;;;;5.93;4.13;;;;;;;27.61;35.90;94899.81;5050146;28;20035;-77
2023/06/27 09:49:09;;;;;;;6.43;4.05;;;;;;;27.71;35.58;94901.63;5066004;28;20083;-77
2023/06/27 09:51:36;;;;;;;4.53;3.75;;;;;;;27.75;35.74;94889.97;5066959;28;20554;-77
2023/06/27 09:54:02;;;;;;;5.93;3.70;;;;;;;27.82;35.65;94891.38;5066113;28;20048;-77
2023/06/27 09:56:31;;;;;;;9.27;5.43;;;;;;;28.03;35.75;94898.47;5066559;28;20055;-77
2023/06/27 09:59:07;;;;;;;7.13;3.97;;;;;;;28.16;35.67;94894.81;5066208;28;20055;-77
2023/06/27 10:01:35;;;;;;;7.75;4.57;;;;;;;28.26;35.88;94892.22;5067369;28;20032;-76
2023/06/27 10:04:00;;;;;;;6.38;4.22;;;;;;;28.37;35.39;94894.75;5068505;28;20108;-76
2023/06/27 10:06:26;;;;;;;5.45;4.18;;;;;;;28.58;34.35;94891.88;5067165;28;20105;-76
2023/06/27 10:08:51;;;;;;;7.32;3.78;;;;;;;28.74;32.53;94889.88;5066683;28;20454;-76
2023/06/27 10:11:16;;;;;;;5.32;4.55;;;;;;;28.89;32.33;94895.56;5065743;28;20016;-76
2023/06/27 10:13:42;;;;;;;9.18;4.25;;;;;;;28.96;32.33;94882.78;5066196;28;20414;-76
2023/06/27 10:16:08;;;;;;;5.88;3.58;;;;;;;29.05;32.48;94882.28;5067450;28;20013;-77
2023/06/27 10:18:34;;;;;;;4.50;3.17;;;;;;;29.18;32.61;94882.09;5067384;28;20113;-78
2023/06/27 10:20:59;;;;;;;5.10;3.67;;;;;;;29.32;33.09;94877.06;5067562;28;20127;-77
2023/06/27 10:23:25;;;;;;;7.10;4.97;;;;;;;29.47;33.00;94874.22;5066882;28;20505;-76
2023/06/27 10:25:51;;;;;;;5.30;3.90;;;;;;;29.62;32.20;94871.44;5067709;28;20082;-77
2023/06/27 10:28:17;;;;;;;4.70;4.20;;;;;;;29.75;30.92;94870.50;5065070;28;20028;-77
2023/06/27 10:30:46;;;;;;;4.80;3.45;;;;;;;29.85;30.00;94873.53;5066272;28;20465;-81
2023/06/27 10:33:27;;;;;;;7.85;3.70;;;;;;;29.92;29.99;94875.59;5065764;28;20423;-77
2023/06/27 10:36:01;;;;;;;4.93;3.40;;;;;;;30.06;30.08;94865.59;5065128;28;20082;-78
2023/06/27 10:38:37;;;;;;;5.10;4.03;;;;;;;30.15;29.28;94867.09;5067524;28;20430;-78
2023/06/27 10:41:03;;;;;;;5.40;3.90;;;;;;;30.26;29.12;94868.78;5066089;28;20090;-77
2023/06/27 10:43:52;;;;;;;4.82;3.70;;;;;;;30.38;28.28;94870.66;5067590;28;20036;-77
2023/06/27 10:46:30;;;;;;;3.75;3.22;;;;;;;30.46;28.91;94859.28;5065334;28;20099;-77
2023/06/27 10:49:02;;;;;;;5.13;4.05;;;;;;;30.59;28.22;94864.72;5064734;28;20885;-77
2023/06/27 10:51:34;;;;;;;3.90;3.38;;;;;;;30.66;28.48;94863.19;5065621;28;20100;-77
2023/06/27 10:54:09;;;;;;;5.80;3.17;;;;;;;30.73;27.97;94848.25;5064776;28;20031;-77
2023/06/27 10:56:36;;;;;;;5.30;3.55;;;;;;;30.85;28.48;94852.19;5067240;28;20059;-77
2023/06/27 10:59:03;;;;;;;4.93;4.43;;;;;;;30.89;28.83;94860.28;5065242;28;20028;-78
2023/06/27 11:01:34;;;;;;;5.82;3.92;;;;;;;30.96;28.87;94859.50;5065390;28;20031;-77
2023/06/27 11:04:00;;;;;;;4.88;3.35;;;;;;;31.06;28.17;94857.53;5066794;28;20463;-77
2023/06/27 11:06:42;;;;;;;5.53;3.70;;;;;;;31.15;28.08;94847.69;5064767;28;20466;-77
2023/06/27 11:09:13;;;;;;;6.70;4.32;;;;;;;31.22;28.22;94849.72;5049157;28;20123;-77
2023/06/27 11:11:39;;;;;;;4.95;4.13;;;;;;;31.22;28.46;94849.72;5064311;28;20033;-78
2023/06/27 11:14:06;;;;;;;4.45;3.47;;;;;;;31.31;27.97;94846.28;5065663;28;20101;-78
2023/06/27 11:16:33;;;;;;;4.35;3.45;;;;;;;31.44;27.22;94848.09;5066336;28;20032;-78
2023/06/27 11:18:59;;;;;;;4.65;3.72;;;;;;;31.40;26.59;94848.47;5064660;28;20025;-77
2023/06/27 11:21:25;;;;;;;5.43;3.80;;;;;;;31.42;26.09;94842.97;5065302;28;20131;-77
2023/06/27 11:23:50;;;;;;;3.78;3.42;;;;;;;31.35;26.12;94837.34;5064021;28;20021;-77
2023/06/27 11:26:16;;;;;;;5.93;3.80;;;;;;;31.43;26.15;94824.59;5065634;28;20364;-77
2023/06/27 11:28:42;;;;;;;10.30;3.88;;;;;;;31.35;26.38;94831.66;5065202;28;20057;-78